sensor_id;sensor_type;location;lat;lon;timestamp;temperature;humidity
14727;DHT22;7454;51.256;8.176;2022-09-09T00:02:03;14.10;69.60
14727;DHT22;7454;51.256;8.176;2022-09-09T00:04:32;14.00;69.30
14727;DHT22;7454;51.256;8.176;2022-09-09T00:07:00;14.00;69.50
14727;DHT22;7454;51.256;8.176;2022-09-09T00:10:00;14.10;69.90
14727;DHT22;7454;51.256;8.176;2022-09-09T00:12:41;14.10;69.90
14727;DHT22;7454;51.256;8.176;2022-09-09T00:15:18;14.20;69.70
14727;DHT22;7454;51.256;8.176;2022-09-09T00:23:12;14.00;69.30
14727;DHT22;7454;51.256;8.176;2022-09-09T00:25:42;14.00;69.30
14727;DHT22;7454;51.256;8.176;2022-09-09T00:28:18;14.00;69.40
14727;DHT22;7454;51.256;8.176;2022-09-09T00:30:45;14.00;69.50
14727;DHT22;7454;51.256;8.176;2022-09-09T00:33:13;13.80;69.40
14727;DHT22;7454;51.256;8.176;2022-09-09T00:35:47;13.70;69.30
14727;DHT22;7454;51.256;8.176;2022-09-09T00:38:15;13.80;69.40
14727;DHT22;7454;51.256;8.176;2022-09-09T00:40:45;13.80;69.20
14727;DHT22;7454;51.256;8.176;2022-09-09T00:43:24;13.80;69.30
14727;DHT22;7454;51.256;8.176;2022-09-09T00:48:28;13.90;69.70
14727;DHT22;7454;51.256;8.176;2022-09-09T00:51:51;14.00;69.90
14727;DHT22;7454;51.256;8.176;2022-09-09T00:54:12;14.00;69.90
14727;DHT22;7454;51.256;8.176;2022-09-09T00:59:55;14.20;70.10
14727;DHT22;7454;51.256;8.176;2022-09-09T01:02:26;14.30;70.10
14727;DHT22;7454;51.256;8.176;2022-09-09T01:05:02;14.40;70.10
14727;DHT22;7454;51.256;8.176;2022-09-09T01:07:47;14.30;69.50
14727;DHT22;7454;51.256;8.176;2022-09-09T01:10:24;14.30;69.90
14727;DHT22;7454;51.256;8.176;2022-09-09T01:12:55;14.30;70.10
14727;DHT22;7454;51.256;8.176;2022-09-09T01:15:22;14.30;69.60
14727;DHT22;7454;51.256;8.176;2022-09-09T01:18:00;14.30;69.90
14727;DHT22;7454;51.256;8.176;2022-09-09T01:20:39;14.40;69.70
14727;DHT22;7454;51.256;8.176;2022-09-09T01:26:37;14.30;69.60
14727;DHT22;7454;51.256;8.176;2022-09-09T01:29:11;14.30;70.10
14727;DHT22;7454;51.256;8.176;2022-09-09T01:31:41;14.40;70.50
14727;DHT22;7454;51.256;8.176;2022-09-09T01:34:19;14.40;69.70
14727;DHT22;7454;51.256;8.176;2022-09-09T01:36:47;14.30;69.50
14727;DHT22;7454;51.256;8.176;2022-09-09T01:39:20;14.30;69.50
14727;DHT22;7454;51.256;8.176;2022-09-09T01:41:53;14.30;69.70
14727;DHT22;7454;51.256;8.176;2022-09-09T01:44:20;14.30;69.50
14727;DHT22;7454;51.256;8.176;2022-09-09T01:46:46;14.20;69.40
14727;DHT22;7454;51.256;8.176;2022-09-09T01:49:17;14.20;69.50
14727;DHT22;7454;51.256;8.176;2022-09-09T01:51:44;14.20;69.70
14727;DHT22;7454;51.256;8.176;2022-09-09T01:54:13;14.20;70.10
14727;DHT22;7454;51.256;8.176;2022-09-09T02:02:19;14.20;69.90
14727;DHT22;7454;51.256;8.176;2022-09-09T02:07:49;14.30;70.20
14727;DHT22;7454;51.256;8.176;2022-09-09T02:10:34;14.30;70.20
14727;DHT22;7454;51.256;8.176;2022-09-09T02:13:14;14.30;70.00
14727;DHT22;7454;51.256;8.176;2022-09-09T02:18:17;14.20;69.60
14727;DHT22;7454;51.256;8.176;2022-09-09T02:20:49;14.20;69.50
14727;DHT22;7454;51.256;8.176;2022-09-09T02:23:16;14.10;69.60
14727;DHT22;7454;51.256;8.176;2022-09-09T02:25:45;14.10;70.30
14727;DHT22;7454;51.256;8.176;2022-09-09T02:28:20;14.40;70.40
14727;DHT22;7454;51.256;8.176;2022-09-09T02:30:47;14.10;70.40
14727;DHT22;7454;51.256;8.176;2022-09-09T02:33:15;14.20;70.30
14727;DHT22;7454;51.256;8.176;2022-09-09T02:35:44;14.30;70.40
14727;DHT22;7454;51.256;8.176;2022-09-09T02:38:12;14.40;70.40
14727;DHT22;7454;51.256;8.176;2022-09-09T02:40:43;14.30;70.30
14727;DHT22;7454;51.256;8.176;2022-09-09T02:43:09;14.30;70.40
14727;DHT22;7454;51.256;8.176;2022-09-09T02:45:59;14.30;70.50
14727;DHT22;7454;51.256;8.176;2022-09-09T02:48:44;14.30;70.50
14727;DHT22;7454;51.256;8.176;2022-09-09T02:54:00;14.30;70.30
14727;DHT22;7454;51.256;8.176;2022-09-09T02:56:29;14.40;70.30
14727;DHT22;7454;51.256;8.176;2022-09-09T02:58:58;14.40;70.40
14727;DHT22;7454;51.256;8.176;2022-09-09T03:01:25;14.40;70.30
14727;DHT22;7454;51.256;8.176;2022-09-09T03:03:51;14.40;70.50
14727;DHT22;7454;51.256;8.176;2022-09-09T03:06:17;14.40;70.40
14727;DHT22;7454;51.256;8.176;2022-09-09T03:08:48;14.40;70.60
14727;DHT22;7454;51.256;8.176;2022-09-09T03:11:17;14.50;70.50
14727;DHT22;7454;51.256;8.176;2022-09-09T03:13:42;14.40;70.70
14727;DHT22;7454;51.256;8.176;2022-09-09T03:16:09;14.50;70.70
14727;DHT22;7454;51.256;8.176;2022-09-09T03:18:40;14.60;70.70
14727;DHT22;7454;51.256;8.176;2022-09-09T03:21:06;14.60;70.70
14727;DHT22;7454;51.256;8.176;2022-09-09T03:23:32;14.60;70.70
14727;DHT22;7454;51.256;8.176;2022-09-09T03:26:01;14.70;70.70
14727;DHT22;7454;51.256;8.176;2022-09-09T03:28:36;14.80;70.80
14727;DHT22;7454;51.256;8.176;2022-09-09T03:31:02;14.80;70.80
14727;DHT22;7454;51.256;8.176;2022-09-09T03:33:33;14.80;70.60
14727;DHT22;7454;51.256;8.176;2022-09-09T03:35:59;14.90;70.90
14727;DHT22;7454;51.256;8.176;2022-09-09T03:38:25;14.90;70.70
14727;DHT22;7454;51.256;8.176;2022-09-09T03:40:52;14.90;71.00
14727;DHT22;7454;51.256;8.176;2022-09-09T03:43:28;14.90;70.60
14727;DHT22;7454;51.256;8.176;2022-09-09T03:45:55;15.00;70.80
14727;DHT22;7454;51.256;8.176;2022-09-09T03:48:25;15.00;70.90
14727;DHT22;7454;51.256;8.176;2022-09-09T03:50:53;15.00;70.80
14727;DHT22;7454;51.256;8.176;2022-09-09T03:53:21;14.90;70.70
14727;DHT22;7454;51.256;8.176;2022-09-09T03:55:49;15.00;70.80
14727;DHT22;7454;51.256;8.176;2022-09-09T03:58:18;15.00;71.00
14727;DHT22;7454;51.256;8.176;2022-09-09T04:00:56;15.00;70.60
14727;DHT22;7454;51.256;8.176;2022-09-09T04:03:25;15.00;70.90
14727;DHT22;7454;51.256;8.176;2022-09-09T04:05:51;15.00;70.40
14727;DHT22;7454;51.256;8.176;2022-09-09T04:08:18;14.90;70.60
14727;DHT22;7454;51.256;8.176;2022-09-09T04:10:48;15.00;70.50
14727;DHT22;7454;51.256;8.176;2022-09-09T04:13:15;15.00;70.70
14727;DHT22;7454;51.256;8.176;2022-09-09T04:15:44;14.80;70.50
14727;DHT22;7454;51.256;8.176;2022-09-09T04:18:16;15.00;70.60
14727;DHT22;7454;51.256;8.176;2022-09-09T04:20:41;15.10;70.80
14727;DHT22;7454;51.256;8.176;2022-09-09T04:23:09;15.10;70.70
14727;DHT22;7454;51.256;8.176;2022-09-09T04:25:34;15.10;70.60
14727;DHT22;7454;51.256;8.176;2022-09-09T04:28:00;15.10;70.60
14727;DHT22;7454;51.256;8.176;2022-09-09T04:30:27;15.10;70.60
14727;DHT22;7454;51.256;8.176;2022-09-09T04:32:53;15.10;70.50
14727;DHT22;7454;51.256;8.176;2022-09-09T04:35:18;15.10;70.50
14727;DHT22;7454;51.256;8.176;2022-09-09T04:37:45;15.20;70.50
14727;DHT22;7454;51.256;8.176;2022-09-09T04:40:11;15.20;70.70
14727;DHT22;7454;51.256;8.176;2022-09-09T04:42:37;15.20;70.50
14727;DHT22;7454;51.256;8.176;2022-09-09T04:45:03;15.20;70.60
14727;DHT22;7454;51.256;8.176;2022-09-09T04:47:29;15.20;70.50
14727;DHT22;7454;51.256;8.176;2022-09-09T04:49:55;15.10;70.50
14727;DHT22;7454;51.256;8.176;2022-09-09T04:52:21;15.20;70.40
14727;DHT22;7454;51.256;8.176;2022-09-09T04:54:47;15.20;70.50
14727;DHT22;7454;51.256;8.176;2022-09-09T04:57:13;15.30;70.40
14727;DHT22;7454;51.256;8.176;2022-09-09T04:59:39;15.10;70.40
14727;DHT22;7454;51.256;8.176;2022-09-09T05:02:05;15.30;70.50
14727;DHT22;7454;51.256;8.176;2022-09-09T05:04:31;15.30;70.50
14727;DHT22;7454;51.256;8.176;2022-09-09T05:06:58;15.30;70.20
14727;DHT22;7454;51.256;8.176;2022-09-09T05:09:24;15.30;70.30
14727;DHT22;7454;51.256;8.176;2022-09-09T05:11:51;15.30;70.20
14727;DHT22;7454;51.256;8.176;2022-09-09T05:14:28;15.20;70.20
14727;DHT22;7454;51.256;8.176;2022-09-09T05:16:55;15.30;70.30
14727;DHT22;7454;51.256;8.176;2022-09-09T05:19:22;15.30;70.20
14727;DHT22;7454;51.256;8.176;2022-09-09T05:21:49;15.20;70.20
14727;DHT22;7454;51.256;8.176;2022-09-09T05:24:19;15.30;70.40
14727;DHT22;7454;51.256;8.176;2022-09-09T05:26:47;15.30;70.50
14727;DHT22;7454;51.256;8.176;2022-09-09T05:29:13;15.30;70.50
14727;DHT22;7454;51.256;8.176;2022-09-09T05:31:39;15.30;70.70
14727;DHT22;7454;51.256;8.176;2022-09-09T05:34:10;15.30;70.60
14727;DHT22;7454;51.256;8.176;2022-09-09T05:36:36;15.30;70.50
14727;DHT22;7454;51.256;8.176;2022-09-09T05:39:02;15.40;70.50
14727;DHT22;7454;51.256;8.176;2022-09-09T05:41:31;15.40;70.70
14727;DHT22;7454;51.256;8.176;2022-09-09T05:43:59;15.40;70.70
14727;DHT22;7454;51.256;8.176;2022-09-09T05:46:26;15.40;70.80
14727;DHT22;7454;51.256;8.176;2022-09-09T05:48:53;15.40;70.60
14727;DHT22;7454;51.256;8.176;2022-09-09T05:51:24;15.40;70.60
14727;DHT22;7454;51.256;8.176;2022-09-09T05:53:53;15.40;70.60
14727;DHT22;7454;51.256;8.176;2022-09-09T05:56:22;15.50;70.70
14727;DHT22;7454;51.256;8.176;2022-09-09T05:58:53;15.50;70.60
14727;DHT22;7454;51.256;8.176;2022-09-09T06:01:24;15.50;70.40
14727;DHT22;7454;51.256;8.176;2022-09-09T06:03:51;15.50;70.80
14727;DHT22;7454;51.256;8.176;2022-09-09T06:06:19;15.60;70.60
14727;DHT22;7454;51.256;8.176;2022-09-09T06:08:47;15.70;70.70
14727;DHT22;7454;51.256;8.176;2022-09-09T06:11:16;15.70;70.70
14727;DHT22;7454;51.256;8.176;2022-09-09T06:13:43;15.80;70.70
14727;DHT22;7454;51.256;8.176;2022-09-09T06:16:10;15.80;70.40
14727;DHT22;7454;51.256;8.176;2022-09-09T06:18:40;15.80;70.50
14727;DHT22;7454;51.256;8.176;2022-09-09T06:21:07;15.70;70.60
14727;DHT22;7454;51.256;8.176;2022-09-09T06:23:35;15.80;70.90
14727;DHT22;7454;51.256;8.176;2022-09-09T06:26:02;15.80;71.10
14727;DHT22;7454;51.256;8.176;2022-09-09T06:28:35;15.70;71.10
14727;DHT22;7454;51.256;8.176;2022-09-09T06:31:03;15.70;71.20
14727;DHT22;7454;51.256;8.176;2022-09-09T06:33:30;15.70;71.20
14727;DHT22;7454;51.256;8.176;2022-09-09T06:35:57;15.70;71.10
14727;DHT22;7454;51.256;8.176;2022-09-09T06:38:23;15.70;71.20
14727;DHT22;7454;51.256;8.176;2022-09-09T06:40:52;15.70;71.30
14727;DHT22;7454;51.256;8.176;2022-09-09T06:43:20;15.70;71.50
14727;DHT22;7454;51.256;8.176;2022-09-09T06:45:55;15.70;72.10
14727;DHT22;7454;51.256;8.176;2022-09-09T06:48:25;15.70;72.30
14727;DHT22;7454;51.256;8.176;2022-09-09T06:51:05;15.70;72.30
14727;DHT22;7454;51.256;8.176;2022-09-09T06:53:35;15.70;72.50
14727;DHT22;7454;51.256;8.176;2022-09-09T06:58:40;15.80;72.30
14727;DHT22;7454;51.256;8.176;2022-09-09T07:01:20;15.90;72.00
14727;DHT22;7454;51.256;8.176;2022-09-09T07:03:48;16.00;72.60
14727;DHT22;7454;51.256;8.176;2022-09-09T07:06:16;16.00;72.10
14727;DHT22;7454;51.256;8.176;2022-09-09T07:08:52;16.00;72.10
14727;DHT22;7454;51.256;8.176;2022-09-09T07:11:22;16.00;71.80
14727;DHT22;7454;51.256;8.176;2022-09-09T07:13:50;16.10;72.10
14727;DHT22;7454;51.256;8.176;2022-09-09T07:16:16;16.00;71.80
14727;DHT22;7454;51.256;8.176;2022-09-09T07:18:43;16.10;71.90
14727;DHT22;7454;51.256;8.176;2022-09-09T07:21:10;16.20;71.80
14727;DHT22;7454;51.256;8.176;2022-09-09T07:23:37;16.20;72.20
14727;DHT22;7454;51.256;8.176;2022-09-09T07:26:23;16.40;72.10
14727;DHT22;7454;51.256;8.176;2022-09-09T07:28:52;16.40;71.30
14727;DHT22;7454;51.256;8.176;2022-09-09T07:31:18;16.40;71.70
14727;DHT22;7454;51.256;8.176;2022-09-09T07:33:53;16.50;71.30
14727;DHT22;7454;51.256;8.176;2022-09-09T07:36:20;16.50;71.30
14727;DHT22;7454;51.256;8.176;2022-09-09T07:38:53;16.50;71.20
14727;DHT22;7454;51.256;8.176;2022-09-09T07:41:21;16.70;71.30
14727;DHT22;7454;51.256;8.176;2022-09-09T07:43:55;16.60;70.80
14727;DHT22;7454;51.256;8.176;2022-09-09T07:46:23;16.70;70.90
14727;DHT22;7454;51.256;8.176;2022-09-09T07:48:51;16.70;70.70
14727;DHT22;7454;51.256;8.176;2022-09-09T07:51:37;16.70;71.10
14727;DHT22;7454;51.256;8.176;2022-09-09T07:54:05;16.70;71.00
14727;DHT22;7454;51.256;8.176;2022-09-09T07:56:33;16.80;71.00
14727;DHT22;7454;51.256;8.176;2022-09-09T07:58:59;16.90;71.10
14727;DHT22;7454;51.256;8.176;2022-09-09T08:01:33;17.00;70.80
14727;DHT22;7454;51.256;8.176;2022-09-09T08:04:03;17.00;70.50
14727;DHT22;7454;51.256;8.176;2022-09-09T08:06:34;17.10;70.80
14727;DHT22;7454;51.256;8.176;2022-09-09T08:09:02;17.10;70.30
14727;DHT22;7454;51.256;8.176;2022-09-09T08:11:30;17.20;70.70
14727;DHT22;7454;51.256;8.176;2022-09-09T08:13:58;17.20;70.30
14727;DHT22;7454;51.256;8.176;2022-09-09T08:16:25;17.30;70.20
14727;DHT22;7454;51.256;8.176;2022-09-09T08:18:53;17.20;70.20
14727;DHT22;7454;51.256;8.176;2022-09-09T08:21:24;17.30;70.10
14727;DHT22;7454;51.256;8.176;2022-09-09T08:23:52;17.30;69.90
14727;DHT22;7454;51.256;8.176;2022-09-09T08:26:20;17.30;70.10
14727;DHT22;7454;51.256;8.176;2022-09-09T08:28:48;17.40;69.90
14727;DHT22;7454;51.256;8.176;2022-09-09T08:31:20;17.50;69.90
14727;DHT22;7454;51.256;8.176;2022-09-09T08:33:47;17.50;69.70
14727;DHT22;7454;51.256;8.176;2022-09-09T08:36:15;17.60;69.40
14727;DHT22;7454;51.256;8.176;2022-09-09T08:38:49;17.50;69.20
14727;DHT22;7454;51.256;8.176;2022-09-09T08:43:47;17.60;69.20
14727;DHT22;7454;51.256;8.176;2022-09-09T08:46:24;17.60;69.30
14727;DHT22;7454;51.256;8.176;2022-09-09T08:49:15;17.60;69.40
14727;DHT22;7454;51.256;8.176;2022-09-09T08:51:46;17.70;69.20
14727;DHT22;7454;51.256;8.176;2022-09-09T08:54:13;17.70;69.20
14727;DHT22;7454;51.256;8.176;2022-09-09T08:56:39;17.70;69.10
14727;DHT22;7454;51.256;8.176;2022-09-09T08:59:05;17.80;68.90
14727;DHT22;7454;51.256;8.176;2022-09-09T09:07:11;17.70;68.80
14727;DHT22;7454;51.256;8.176;2022-09-09T09:12:46;17.70;68.60
14727;DHT22;7454;51.256;8.176;2022-09-09T09:15:19;17.70;68.60
14727;DHT22;7454;51.256;8.176;2022-09-09T09:17:48;17.70;68.50
14727;DHT22;7454;51.256;8.176;2022-09-09T09:20:16;17.80;68.50
14727;DHT22;7454;51.256;8.176;2022-09-09T09:22:47;17.80;68.60
14727;DHT22;7454;51.256;8.176;2022-09-09T09:25:21;17.80;68.30
14727;DHT22;7454;51.256;8.176;2022-09-09T09:27:52;17.90;68.20
14727;DHT22;7454;51.256;8.176;2022-09-09T09:31:10;17.80;68.10
14727;DHT22;7454;51.256;8.176;2022-09-09T09:36:09;17.80;68.20
14727;DHT22;7454;51.256;8.176;2022-09-09T09:38:38;17.90;68.30
14727;DHT22;7454;51.256;8.176;2022-09-09T09:41:05;17.90;68.00
14727;DHT22;7454;51.256;8.176;2022-09-09T09:43:35;17.90;68.00
14727;DHT22;7454;51.256;8.176;2022-09-09T09:46:18;18.00;68.20
14727;DHT22;7454;51.256;8.176;2022-09-09T09:51:24;18.00;68.00
14727;DHT22;7454;51.256;8.176;2022-09-09T09:53:51;18.00;67.80
14727;DHT22;7454;51.256;8.176;2022-09-09T09:56:26;18.00;67.70
14727;DHT22;7454;51.256;8.176;2022-09-09T09:58:54;18.00;67.80
14727;DHT22;7454;51.256;8.176;2022-09-09T10:01:27;18.10;67.80
14727;DHT22;7454;51.256;8.176;2022-09-09T10:04:29;18.20;67.80
14727;DHT22;7454;51.256;8.176;2022-09-09T10:06:53;18.20;67.40
14727;DHT22;7454;51.256;8.176;2022-09-09T10:09:23;18.20;67.60
14727;DHT22;7454;51.256;8.176;2022-09-09T10:14:33;18.20;67.50
14727;DHT22;7454;51.256;8.176;2022-09-09T10:17:34;18.20;67.60
14727;DHT22;7454;51.256;8.176;2022-09-09T10:22:34;18.30;67.30
14727;DHT22;7454;51.256;8.176;2022-09-09T10:34:16;18.40;67.60
14727;DHT22;7454;51.256;8.176;2022-09-09T10:36:50;18.50;67.80
14727;DHT22;7454;51.256;8.176;2022-09-09T10:39:36;18.40;67.60
14727;DHT22;7454;51.256;8.176;2022-09-09T10:42:04;18.30;67.40
14727;DHT22;7454;51.256;8.176;2022-09-09T10:52:39;18.00;68.50
14727;DHT22;7454;51.256;8.176;2022-09-09T10:55:16;18.00;68.70
14727;DHT22;7454;51.256;8.176;2022-09-09T10:57:48;18.00;68.40
14727;DHT22;7454;51.256;8.176;2022-09-09T11:00:17;17.90;68.20
14727;DHT22;7454;51.256;8.176;2022-09-09T11:02:45;17.90;68.40
14727;DHT22;7454;51.256;8.176;2022-09-09T11:05:19;17.90;68.30
14727;DHT22;7454;51.256;8.176;2022-09-09T11:07:47;17.80;68.20
14727;DHT22;7454;51.256;8.176;2022-09-09T11:10:22;17.90;68.30
14727;DHT22;7454;51.256;8.176;2022-09-09T11:13:11;17.90;68.30
14727;DHT22;7454;51.256;8.176;2022-09-09T11:15:42;17.90;68.20
14727;DHT22;7454;51.256;8.176;2022-09-09T11:18:11;17.90;67.80
14727;DHT22;7454;51.256;8.176;2022-09-09T11:20:41;18.00;67.50
14727;DHT22;7454;51.256;8.176;2022-09-09T11:23:17;18.10;67.40
14727;DHT22;7454;51.256;8.176;2022-09-09T11:25:56;18.10;67.40
14727;DHT22;7454;51.256;8.176;2022-09-09T11:31:21;18.20;67.20
14727;DHT22;7454;51.256;8.176;2022-09-09T11:34:19;18.20;67.20
14727;DHT22;7454;51.256;8.176;2022-09-09T11:42:15;18.50;66.90
14727;DHT22;7454;51.256;8.176;2022-09-09T11:44:44;18.60;66.60
14727;DHT22;7454;51.256;8.176;2022-09-09T11:47:29;18.70;66.50
14727;DHT22;7454;51.256;8.176;2022-09-09T11:52:40;18.80;66.60
14727;DHT22;7454;51.256;8.176;2022-09-09T11:55:09;18.80;66.40
14727;DHT22;7454;51.256;8.176;2022-09-09T11:57:37;18.80;66.50
14727;DHT22;7454;51.256;8.176;2022-09-09T12:00:03;18.70;66.40
14727;DHT22;7454;51.256;8.176;2022-09-09T12:02:37;18.80;66.30
14727;DHT22;7454;51.256;8.176;2022-09-09T12:05:14;18.70;66.30
14727;DHT22;7454;51.256;8.176;2022-09-09T12:07:52;18.70;66.30
14727;DHT22;7454;51.256;8.176;2022-09-09T12:12:54;18.70;66.20
14727;DHT22;7454;51.256;8.176;2022-09-09T12:15:21;18.70;66.20
14727;DHT22;7454;51.256;8.176;2022-09-09T12:17:55;18.80;66.30
14727;DHT22;7454;51.256;8.176;2022-09-09T12:20:23;18.90;66.10
14727;DHT22;7454;51.256;8.176;2022-09-09T12:28:11;19.00;65.90
14727;DHT22;7454;51.256;8.176;2022-09-09T12:30:50;18.90;65.90
14727;DHT22;7454;51.256;8.176;2022-09-09T12:33:24;18.90;65.80
14727;DHT22;7454;51.256;8.176;2022-09-09T12:35:59;18.80;66.10
14727;DHT22;7454;51.256;8.176;2022-09-09T12:38:29;18.80;66.10
14727;DHT22;7454;51.256;8.176;2022-09-09T12:40:58;18.80;66.10
14727;DHT22;7454;51.256;8.176;2022-09-09T12:43:24;18.90;66.20
14727;DHT22;7454;51.256;8.176;2022-09-09T12:45:53;18.90;65.80
14727;DHT22;7454;51.256;8.176;2022-09-09T12:48:25;18.90;66.20
14727;DHT22;7454;51.256;8.176;2022-09-09T12:50:56;18.90;66.10
14727;DHT22;7454;51.256;8.176;2022-09-09T12:53:24;19.00;66.40
14727;DHT22;7454;51.256;8.176;2022-09-09T12:56:23;19.00;66.30
14727;DHT22;7454;51.256;8.176;2022-09-09T12:58:55;19.00;66.10
14727;DHT22;7454;51.256;8.176;2022-09-09T13:03:52;19.10;66.10
14727;DHT22;7454;51.256;8.176;2022-09-09T13:06:22;19.10;66.00
14727;DHT22;7454;51.256;8.176;2022-09-09T13:08:52;19.10;66.00
14727;DHT22;7454;51.256;8.176;2022-09-09T13:11:38;19.20;65.90
14727;DHT22;7454;51.256;8.176;2022-09-09T13:14:42;19.20;66.20
14727;DHT22;7454;51.256;8.176;2022-09-09T13:17:06;19.30;66.10
14727;DHT22;7454;51.256;8.176;2022-09-09T13:19:34;19.30;66.00
14727;DHT22;7454;51.256;8.176;2022-09-09T13:22:14;19.30;65.90
14727;DHT22;7454;51.256;8.176;2022-09-09T13:24:42;19.30;66.00
14727;DHT22;7454;51.256;8.176;2022-09-09T13:29:55;19.30;65.80
14727;DHT22;7454;51.256;8.176;2022-09-09T13:32:22;19.20;65.90
14727;DHT22;7454;51.256;8.176;2022-09-09T13:34:52;19.20;65.80
14727;DHT22;7454;51.256;8.176;2022-09-09T13:39:58;19.20;66.10
14727;DHT22;7454;51.256;8.176;2022-09-09T13:42:28;19.10;65.90
14727;DHT22;7454;51.256;8.176;2022-09-09T13:44:55;19.20;66.30
14727;DHT22;7454;51.256;8.176;2022-09-09T13:47:29;19.10;66.10
14727;DHT22;7454;51.256;8.176;2022-09-09T13:49:57;19.10;66.30
14727;DHT22;7454;51.256;8.176;2022-09-09T13:52:22;19.20;66.40
14727;DHT22;7454;51.256;8.176;2022-09-09T13:54:49;19.20;66.10
14727;DHT22;7454;51.256;8.176;2022-09-09T13:57:16;19.30;66.00
14727;DHT22;7454;51.256;8.176;2022-09-09T13:59:43;19.40;66.10
14727;DHT22;7454;51.256;8.176;2022-09-09T14:02:10;19.30;66.00
14727;DHT22;7454;51.256;8.176;2022-09-09T14:04:35;19.40;66.10
14727;DHT22;7454;51.256;8.176;2022-09-09T14:07:01;19.50;66.20
14727;DHT22;7454;51.256;8.176;2022-09-09T14:09:27;19.40;66.20
14727;DHT22;7454;51.256;8.176;2022-09-09T14:11:53;19.40;65.90
14727;DHT22;7454;51.256;8.176;2022-09-09T14:14:20;19.40;65.80
14727;DHT22;7454;51.256;8.176;2022-09-09T14:16:46;19.40;66.10
14727;DHT22;7454;51.256;8.176;2022-09-09T14:19:12;19.30;66.30
14727;DHT22;7454;51.256;8.176;2022-09-09T14:21:38;19.20;66.10
14727;DHT22;7454;51.256;8.176;2022-09-09T14:24:04;19.30;66.10
14727;DHT22;7454;51.256;8.176;2022-09-09T14:26:30;19.20;65.40
14727;DHT22;7454;51.256;8.176;2022-09-09T14:28:55;19.30;65.50
14727;DHT22;7454;51.256;8.176;2022-09-09T14:31:22;19.20;65.20
14727;DHT22;7454;51.256;8.176;2022-09-09T14:33:48;19.30;65.40
14727;DHT22;7454;51.256;8.176;2022-09-09T14:36:14;19.50;65.40
14727;DHT22;7454;51.256;8.176;2022-09-09T14:38:40;19.50;65.00
14727;DHT22;7454;51.256;8.176;2022-09-09T14:41:07;19.50;65.00
14727;DHT22;7454;51.256;8.176;2022-09-09T14:43:35;19.40;64.90
14727;DHT22;7454;51.256;8.176;2022-09-09T14:46:07;19.40;65.10
14727;DHT22;7454;51.256;8.176;2022-09-09T14:48:35;19.40;65.20
14727;DHT22;7454;51.256;8.176;2022-09-09T14:53:35;19.50;65.00
14727;DHT22;7454;51.256;8.176;2022-09-09T14:56:05;19.50;65.20
14727;DHT22;7454;51.256;8.176;2022-09-09T14:58:35;19.50;65.10
14727;DHT22;7454;51.256;8.176;2022-09-09T15:01:05;19.40;65.00
14727;DHT22;7454;51.256;8.176;2022-09-09T15:03:32;19.40;65.00
14727;DHT22;7454;51.256;8.176;2022-09-09T15:05:57;19.40;65.10
14727;DHT22;7454;51.256;8.176;2022-09-09T15:08:26;19.30;65.00
14727;DHT22;7454;51.256;8.176;2022-09-09T15:10:58;19.30;65.00
14727;DHT22;7454;51.256;8.176;2022-09-09T15:13:25;19.30;65.30
14727;DHT22;7454;51.256;8.176;2022-09-09T15:15:50;19.30;65.20
14727;DHT22;7454;51.256;8.176;2022-09-09T15:18:17;19.20;65.30
14727;DHT22;7454;51.256;8.176;2022-09-09T15:20:48;19.20;65.30
14727;DHT22;7454;51.256;8.176;2022-09-09T15:23:14;19.10;65.00
14727;DHT22;7454;51.256;8.176;2022-09-09T15:25:53;19.20;65.10
14727;DHT22;7454;51.256;8.176;2022-09-09T15:28:20;19.10;65.40
14727;DHT22;7454;51.256;8.176;2022-09-09T15:30:49;19.10;65.40
14727;DHT22;7454;51.256;8.176;2022-09-09T15:33:17;19.10;65.50
14727;DHT22;7454;51.256;8.176;2022-09-09T15:35:43;19.10;65.30
14727;DHT22;7454;51.256;8.176;2022-09-09T15:38:09;19.10;65.60
14727;DHT22;7454;51.256;8.176;2022-09-09T15:40:34;19.10;65.80
14727;DHT22;7454;51.256;8.176;2022-09-09T15:43:00;19.10;65.80
14727;DHT22;7454;51.256;8.176;2022-09-09T15:45:27;19.10;65.60
14727;DHT22;7454;51.256;8.176;2022-09-09T15:47:53;19.20;65.80
14727;DHT22;7454;51.256;8.176;2022-09-09T15:50:18;19.10;65.60
14727;DHT22;7454;51.256;8.176;2022-09-09T15:52:44;19.10;65.60
14727;DHT22;7454;51.256;8.176;2022-09-09T15:55:09;19.10;65.50
14727;DHT22;7454;51.256;8.176;2022-09-09T15:57:35;19.00;65.50
14727;DHT22;7454;51.256;8.176;2022-09-09T16:00:02;19.00;65.50
14727;DHT22;7454;51.256;8.176;2022-09-09T16:02:30;19.00;65.50
14727;DHT22;7454;51.256;8.176;2022-09-09T16:04:56;19.00;65.60
14727;DHT22;7454;51.256;8.176;2022-09-09T16:07:22;18.90;65.60
14727;DHT22;7454;51.256;8.176;2022-09-09T16:09:48;18.90;65.60
14727;DHT22;7454;51.256;8.176;2022-09-09T16:12:16;18.80;65.80
14727;DHT22;7454;51.256;8.176;2022-09-09T16:14:42;18.80;65.80
14727;DHT22;7454;51.256;8.176;2022-09-09T16:17:08;18.70;65.80
14727;DHT22;7454;51.256;8.176;2022-09-09T16:19:34;18.60;65.70
14727;DHT22;7454;51.256;8.176;2022-09-09T16:22:00;18.60;65.90
14727;DHT22;7454;51.256;8.176;2022-09-09T16:24:26;18.60;66.00
14727;DHT22;7454;51.256;8.176;2022-09-09T16:26:53;18.50;65.90
14727;DHT22;7454;51.256;8.176;2022-09-09T16:29:19;18.50;65.80
14727;DHT22;7454;51.256;8.176;2022-09-09T16:31:46;18.40;65.90
14727;DHT22;7454;51.256;8.176;2022-09-09T16:34:13;18.30;66.00
14727;DHT22;7454;51.256;8.176;2022-09-09T16:36:40;18.30;66.00
14727;DHT22;7454;51.256;8.176;2022-09-09T16:39:08;18.30;66.10
14727;DHT22;7454;51.256;8.176;2022-09-09T16:41:36;18.30;66.20
14727;DHT22;7454;51.256;8.176;2022-09-09T16:44:04;18.20;66.30
14727;DHT22;7454;51.256;8.176;2022-09-09T16:46:32;18.10;66.20
14727;DHT22;7454;51.256;8.176;2022-09-09T16:49:00;18.10;66.20
14727;DHT22;7454;51.256;8.176;2022-09-09T16:51:28;18.10;66.50
14727;DHT22;7454;51.256;8.176;2022-09-09T16:53:56;18.00;66.40
14727;DHT22;7454;51.256;8.176;2022-09-09T16:56:24;18.00;66.50
14727;DHT22;7454;51.256;8.176;2022-09-09T16:58:51;17.90;66.60
14727;DHT22;7454;51.256;8.176;2022-09-09T17:01:22;17.90;66.70
14727;DHT22;7454;51.256;8.176;2022-09-09T17:03:52;17.80;66.60
14727;DHT22;7454;51.256;8.176;2022-09-09T17:06:21;17.80;66.80
14727;DHT22;7454;51.256;8.176;2022-09-09T17:08:47;17.70;66.90
14727;DHT22;7454;51.256;8.176;2022-09-09T17:11:14;17.70;67.10
14727;DHT22;7454;51.256;8.176;2022-09-09T17:13:42;17.70;67.50
14727;DHT22;7454;51.256;8.176;2022-09-09T17:16:08;17.70;67.60
14727;DHT22;7454;51.256;8.176;2022-09-09T17:18:35;17.60;67.80
14727;DHT22;7454;51.256;8.176;2022-09-09T17:21:08;17.50;68.00
14727;DHT22;7454;51.256;8.176;2022-09-09T17:23:36;17.40;68.30
14727;DHT22;7454;51.256;8.176;2022-09-09T17:26:04;17.40;68.60
14727;DHT22;7454;51.256;8.176;2022-09-09T17:28:31;17.30;69.00
14727;DHT22;7454;51.256;8.176;2022-09-09T17:30:57;17.20;69.10
14727;DHT22;7454;51.256;8.176;2022-09-09T17:33:27;17.10;69.40
14727;DHT22;7454;51.256;8.176;2022-09-09T17:36:05;17.00;69.60
14727;DHT22;7454;51.256;8.176;2022-09-09T17:38:33;16.90;69.80
14727;DHT22;7454;51.256;8.176;2022-09-09T17:41:02;16.80;70.10
14727;DHT22;7454;51.256;8.176;2022-09-09T17:43:33;16.80;69.70